Time;durP1;ratioP1;P1;durP2;ratioP2;P2;SDS_P1;SDS_P2;PMS_P1;PMS_P2;Temp;Humidity;BMP_temperature;BMP_pressure;BME280_temperature;BME280_humidity;BME280_pressure;Samples;Min_cycle;Max_cycle;Signal;HPM_P1;HPM_P2
2022/09/07 00:02:26;;;;;;;;;;;19.50;99.90;;;;;;5088570;28;19928;-78
2022/09/07 00:04:53;;;;;;;;;;;19.30;99.90;;;;;;5094146;28;19924;-78
2022/09/07 00:07:20;;;;;;;;;;;19.20;99.90;;;;;;5065381;28;19950;-78
2022/09/07 00:09:47;;;;;;;;;;;19.10;99.90;;;;;;5072034;28;20307;-78
2022/09/07 00:12:14;;;;;;;;;;;19.10;99.90;;;;;;5087776;28;20280;-79
2022/09/07 00:14:41;;;;;;;;;;;19.10;99.90;;;;;;5074457;28;19928;-77
2022/09/07 00:17:11;;;;;;;;;;;19.00;99.90;;;;;;5075272;28;19924;-78
2022/09/07 00:19:39;;;;;;;;;;;19.00;99.90;;;;;;5089566;28;19924;-78
2022/09/07 00:22:06;;;;;;;;;;;18.90;99.90;;;;;;5075483;28;19924;-80
2022/09/07 00:24:33;;;;;;;;;;;18.90;99.90;;;;;;5092883;28;19983;-80
2022/09/07 00:27:00;;;;;;;;;;;18.80;99.90;;;;;;5072777;28;19935;-79
2022/09/07 00:29:27;;;;;;;;;;;18.80;99.90;;;;;;5066443;28;19924;-78
2022/09/07 00:31:54;;;;;;;;;;;18.70;99.90;;;;;;5077069;28;19995;-79
2022/09/07 00:34:22;;;;;;;;;;;18.60;99.90;;;;;;5057526;28;20603;-76
2022/09/07 00:36:49;;;;;;;;;;;18.50;99.90;;;;;;5056384;28;19932;-76
2022/09/07 00:39:16;;;;;;;;;;;18.50;99.90;;;;;;5082066;28;19947;-76
2022/09/07 00:41:43;;;;;;;;;;;18.30;99.90;;;;;;5069831;28;20414;-77
2022/09/07 00:44:29;;;;;;;;;;;18.30;99.90;;;;;;5063000;28;19932;-77
2022/09/07 00:46:56;;;;;;;;;;;18.20;99.90;;;;;;5073682;28;20398;-78
2022/09/07 00:49:24;;;;;;;;;;;18.00;99.90;;;;;;5073980;28;19973;-78
2022/09/07 00:51:54;;;;;;;;;;;17.90;99.90;;;;;;5074487;28;20065;-78
2022/09/07 00:54:23;;;;;;;;;;;17.70;99.90;;;;;;5073203;28;19925;-78
2022/09/07 00:56:51;;;;;;;;;;;17.60;99.90;;;;;;5076653;28;19939;-80
2022/09/07 00:59:20;;;;;;;;;;;17.50;99.90;;;;;;5078855;28;20025;-79
2022/09/07 01:01:47;;;;;;;;;;;17.40;99.90;;;;;;5094139;28;19935;-79
2022/09/07 01:04:14;;;;;;;;;;;17.40;99.90;;;;;;5077747;28;19935;-81
2022/09/07 01:06:43;;;;;;;;;;;17.30;99.90;;;;;;5077957;28;19928;-79
2022/09/07 01:09:16;;;;;;;;;;;17.30;99.90;;;;;;5097105;28;19952;-80
2022/09/07 01:11:49;;;;;;;;;;;17.30;99.90;;;;;;5097410;28;19932;-79
2022/09/07 01:14:18;;;;;;;;;;;17.30;99.90;;;;;;5080803;28;19934;-80
2022/09/07 01:16:51;;;;;;;;;;;17.30;99.90;;;;;;5097276;28;19928;-79
2022/09/07 01:19:37;;;;;;;;;;;17.30;99.90;;;;;;5080664;28;20386;-80
2022/09/07 01:22:15;;;;;;;;;;;17.30;99.90;;;;;;5081910;28;20367;-79
2022/09/07 01:24:48;;;;;;;;;;;17.30;99.90;;;;;;5076771;28;19928;-79
2022/09/07 01:27:26;;;;;;;;;;;17.20;99.90;;;;;;5071988;28;20361;-79
2022/09/07 01:29:59;;;;;;;;;;;17.20;99.90;;;;;;5072332;28;20280;-80
2022/09/07 01:32:33;;;;;;;;;;;17.10;99.90;;;;;;5073221;28;19951;-80
2022/09/07 01:35:02;;;;;;;;;;;17.10;99.90;;;;;;5074168;28;19925;-79
2022/09/07 01:37:32;;;;;;;;;;;17.10;99.90;;;;;;5054135;28;19925;-79
2022/09/07 01:40:03;;;;;;;;;;;17.10;99.90;;;;;;5071101;28;19929;-79
2022/09/07 01:42:33;;;;;;;;;;;17.00;99.90;;;;;;5072208;28;19929;-79
2022/09/07 01:45:00;;;;;;;;;;;17.00;99.90;;;;;;5053106;28;19935;-78
2022/09/07 01:47:30;;;;;;;;;;;17.10;99.90;;;;;;5069109;28;19928;-78
2022/09/07 01:50:01;;;;;;;;;;;17.10;99.90;;;;;;5056441;28;19971;-79
2022/09/07 01:52:33;;;;;;;;;;;17.00;99.90;;;;;;5074418;28;20409;-79
2022/09/07 01:55:02;;;;;;;;;;;17.10;99.90;;;;;;5093043;28;20283;-79
2022/09/07 01:57:32;;;;;;;;;;;17.10;99.90;;;;;;5066854;28;19932;-80
2022/09/07 02:00:04;;;;;;;;;;;17.10;99.90;;;;;;5079764;28;19924;-80
2022/09/07 02:02:40;;;;;;;;;;;17.10;99.90;;;;;;5084066;28;20356;-79
2022/09/07 02:05:08;;;;;;;;;;;17.10;99.90;;;;;;5070780;28;19928;-78
2022/09/07 02:07:38;;;;;;;;;;;17.10;99.90;;;;;;5067029;28;20483;-78
2022/09/07 02:10:08;;;;;;;;;;;17.10;99.90;;;;;;5072315;28;19928;-79
2022/09/07 02:12:36;;;;;;;;;;;17.10;99.90;;;;;;5074469;28;19954;-79
2022/09/07 02:15:07;;;;;;;;;;;17.10;99.90;;;;;;5056427;28;19928;-79
2022/09/07 02:17:36;;;;;;;;;;;17.10;99.90;;;;;;5058571;28;20347;-79
2022/09/07 02:20:06;;;;;;;;;;;17.10;99.90;;;;;;5055222;28;20262;-79
2022/09/07 02:22:34;;;;;;;;;;;17.10;99.90;;;;;;5083717;28;19925;-79
2022/09/07 02:25:03;;;;;;;;;;;17.00;99.90;;;;;;5056480;28;19930;-79
2022/09/07 02:27:34;;;;;;;;;;;17.00;99.90;;;;;;5073816;28;20150;-79
2022/09/07 02:30:01;;;;;;;;;;;16.90;99.90;;;;;;5077515;28;19959;-78
2022/09/07 02:32:29;;;;;;;;;;;16.90;99.90;;;;;;5076840;28;19932;-79
2022/09/07 02:34:56;;;;;;;;;;;16.90;99.90;;;;;;5076672;28;19939;-79
2022/09/07 02:37:23;;;;;;;;;;;16.80;99.90;;;;;;5066897;28;19932;-78
2022/09/07 02:39:50;;;;;;;;;;;16.80;99.90;;;;;;5055195;28;19932;-79
2022/09/07 02:42:17;;;;;;;;;;;16.70;99.90;;;;;;5053057;28;19975;-78
2022/09/07 02:44:45;;;;;;;;;;;16.70;99.90;;;;;;5066683;28;19928;-76
2022/09/07 02:47:26;;;;;;;;;;;16.70;99.90;;;;;;5088539;28;20016;-79
2022/09/07 02:50:08;;;;;;;;;;;16.70;99.90;;;;;;5073046;28;19924;-78
2022/09/07 02:52:41;;;;;;;;;;;16.60;99.90;;;;;;5071224;28;19936;-78
2022/09/07 02:55:11;;;;;;;;;;;16.60;99.90;;;;;;5071928;28;19932;-77
2022/09/07 02:57:42;;;;;;;;;;;16.60;99.90;;;;;;5071389;28;20333;-78
2022/09/07 03:00:11;;;;;;;;;;;16.60;99.90;;;;;;5072473;28;20286;-79
2022/09/07 03:02:44;;;;;;;;;;;16.60;99.90;;;;;;5075846;28;19924;-78
2022/09/07 03:05:16;;;;;;;;;;;16.60;99.90;;;;;;5092346;28;19935;-79
2022/09/07 03:07:45;;;;;;;;;;;16.60;99.90;;;;;;5082100;28;19928;-78
2022/09/07 03:10:12;;;;;;;;;;;16.60;99.90;;;;;;5054978;28;19924;-78
2022/09/07 03:12:40;;;;;;;;;;;16.60;99.90;;;;;;5063457;28;20015;-80
2022/09/07 03:15:10;;;;;;;;;;;16.60;99.90;;;;;;5068752;28;19928;-79
2022/09/07 03:17:37;;;;;;;;;;;16.60;99.90;;;;;;5071000;28;20441;-79
2022/09/07 03:20:05;;;;;;;;;;;16.60;99.90;;;;;;5074451;28;19925;-80
2022/09/07 03:22:33;;;;;;;;;;;16.60;99.90;;;;;;5075725;28;20306;-79
2022/09/07 03:25:03;;;;;;;;;;;16.60;99.90;;;;;;5088517;28;19928;-78
2022/09/07 03:27:30;;;;;;;;;;;16.70;99.90;;;;;;5075983;28;19928;-79
2022/09/07 03:29:57;;;;;;;;;;;16.70;99.90;;;;;;5082116;28;19924;-79
2022/09/07 03:32:24;;;;;;;;;;;16.70;99.90;;;;;;5079170;28;19974;-79
2022/09/07 03:34:51;;;;;;;;;;;16.70;99.90;;;;;;5062581;28;20312;-78
2022/09/07 03:37:19;;;;;;;;;;;16.70;99.90;;;;;;5079985;28;19928;-78
2022/09/07 03:39:47;;;;;;;;;;;16.70;99.90;;;;;;5076133;28;19939;-81
2022/09/07 03:42:14;;;;;;;;;;;16.70;99.90;;;;;;5077919;28;20472;-80
2022/09/07 03:44:42;;;;;;;;;;;16.70;99.90;;;;;;5073740;28;19925;-81
2022/09/07 03:47:09;;;;;;;;;;;16.70;99.90;;;;;;5091921;28;20599;-83
2022/09/07 03:49:36;;;;;;;;;;;16.70;99.90;;;;;;5066344;28;20014;-80
2022/09/07 03:52:03;;;;;;;;;;;16.70;99.90;;;;;;5076822;28;19924;-81
2022/09/07 03:54:30;;;;;;;;;;;16.60;99.90;;;;;;5076288;28;20035;-80
2022/09/07 03:56:59;;;;;;;;;;;16.60;99.90;;;;;;5079873;28;19932;-80
2022/09/07 03:59:26;;;;;;;;;;;16.60;99.90;;;;;;5072881;28;20582;-80
2022/09/07 04:01:53;;;;;;;;;;;16.60;99.90;;;;;;5062093;28;19935;-81
2022/09/07 04:04:20;;;;;;;;;;;16.60;99.90;;;;;;5068678;28;19939;-81
2022/09/07 04:06:47;;;;;;;;;;;16.60;99.90;;;;;;5083094;28;19922;-81
2022/09/07 04:09:14;;;;;;;;;;;16.60;99.90;;;;;;5086569;28;20371;-81
2022/09/07 04:11:41;;;;;;;;;;;16.60;99.90;;;;;;5071700;28;19947;-80
2022/09/07 04:14:10;;;;;;;;;;;16.60;99.90;;;;;;5080859;28;19928;-80
2022/09/07 04:16:37;;;;;;;;;;;16.60;99.90;;;;;;5076466;28;20338;-81
2022/09/07 04:19:04;;;;;;;;;;;16.60;99.90;;;;;;5066937;28;20693;-79
2022/09/07 04:21:32;;;;;;;;;;;16.50;99.90;;;;;;5056737;28;19932;-79
2022/09/07 04:24:00;;;;;;;;;;;16.50;99.90;;;;;;5078447;28;20407;-79
2022/09/07 04:26:27;;;;;;;;;;;16.50;99.90;;;;;;5068521;28;19935;-78
2022/09/07 04:28:54;;;;;;;;;;;16.40;99.90;;;;;;5075122;28;19951;-79
2022/09/07 04:31:23;;;;;;;;;;;16.50;99.90;;;;;;5057433;28;19928;-78
2022/09/07 04:33:51;;;;;;;;;;;16.50;99.90;;;;;;5065225;28;19931;-78
2022/09/07 04:36:18;;;;;;;;;;;16.50;99.90;;;;;;5093248;28;19924;-78
2022/09/07 04:38:45;;;;;;;;;;;16.50;99.90;;;;;;5064658;28;20076;-78
2022/09/07 04:41:13;;;;;;;;;;;16.50;99.90;;;;;;5071336;28;19950;-78
2022/09/07 04:43:42;;;;;;;;;;;16.50;99.90;;;;;;5085252;28;19924;-78
2022/09/07 04:46:11;;;;;;;;;;;16.50;99.90;;;;;;5093565;28;19928;-78
2022/09/07 04:48:40;;;;;;;;;;;16.50;99.90;;;;;;5093900;28;20708;-78
2022/09/07 04:51:08;;;;;;;;;;;16.50;99.90;;;;;;5093862;28;20498;-78
2022/09/07 04:53:35;;;;;;;;;;;16.50;99.90;;;;;;5087600;28;19924;-78
2022/09/07 04:56:03;;;;;;;;;;;16.50;99.90;;;;;;5069508;28;20321;-79
2022/09/07 04:58:30;;;;;;;;;;;16.50;99.90;;;;;;5073684;28;19997;-78
2022/09/07 05:01:00;;;;;;;;;;;16.50;99.90;;;;;;5073336;28;19932;-78
2022/09/07 05:03:28;;;;;;;;;;;16.50;99.90;;;;;;5068335;28;19943;-78
2022/09/07 05:05:56;;;;;;;;;;;16.80;99.90;;;;;;5085984;28;20428;-78
2022/09/07 05:08:23;;;;;;;;;;;16.50;99.90;;;;;;5063801;28;19928;-79
2022/09/07 05:10:53;;;;;;;;;;;16.50;99.90;;;;;;5071697;28;20337;-78
2022/09/07 05:13:20;;;;;;;;;;;16.50;99.90;;;;;;5071622;28;19928;-78
2022/09/07 05:15:47;;;;;;;;;;;16.50;99.90;;;;;;5096285;28;19935;-79
2022/09/07 05:18:14;;;;;;;;;;;16.50;99.90;;;;;;5091794;28;19928;-78
2022/09/07 05:20:42;;;;;;;;;;;16.50;99.90;;;;;;5071940;28;20406;-78
2022/09/07 05:23:10;;;;;;;;;;;16.50;99.90;;;;;;5071401;28;19924;-78
2022/09/07 05:25:42;;;;;;;;;;;16.60;99.90;;;;;;5072894;28;20420;-79
2022/09/07 05:28:09;;;;;;;;;;;16.60;99.90;;;;;;5073033;28;19928;-79
2022/09/07 05:30:36;;;;;;;;;;;16.60;99.90;;;;;;5071969;28;20347;-79
2022/09/07 05:33:02;;;;;;;;;;;16.70;99.90;;;;;;5067556;28;20462;-79
2022/09/07 05:35:30;;;;;;;;;;;16.70;99.90;;;;;;5069030;28;20490;-78
2022/09/07 05:37:57;;;;;;;;;;;16.80;99.90;;;;;;5063498;28;19932;-78
2022/09/07 05:40:25;;;;;;;;;;;16.80;99.90;;;;;;5072955;28;19928;-79
2022/09/07 05:42:52;;;;;;;;;;;16.90;99.90;;;;;;5071826;28;19932;-79
2022/09/07 05:45:19;;;;;;;;;;;17.00;99.90;;;;;;5072628;28;19959;-79
2022/09/07 05:47:49;;;;;;;;;;;17.00;99.90;;;;;;5065862;28;19981;-79
2022/09/07 05:50:16;;;;;;;;;;;17.30;99.90;;;;;;5088862;28;19955;-79
2022/09/07 05:52:44;;;;;;;;;;;17.60;99.90;;;;;;5070409;28;19928;-80
2022/09/07 05:55:11;;;;;;;;;;;17.80;99.90;;;;;;5057029;28;19944;-79
2022/09/07 05:57:40;;;;;;;;;;;17.80;99.90;;;;;;5076925;28;20054;-79
2022/09/07 06:00:07;;;;;;;;;;;18.00;99.90;;;;;;5057432;28;19925;-80
2022/09/07 06:02:39;;;;;;;;;;;18.50;99.90;;;;;;5081812;28;19929;-79
2022/09/07 06:05:06;;;;;;;;;;;19.90;99.90;;;;;;5058188;28;20009;-79
2022/09/07 06:07:33;;;;;;;;;;;19.90;99.90;;;;;;5079548;28;19924;-81
2022/09/07 06:10:03;;;;;;;;;;;20.50;99.90;;;;;;5077653;28;19927;-79
2022/09/07 06:12:30;;;;;;;;;;;20.60;99.90;;;;;;5083234;28;19936;-80
2022/09/07 06:15:00;;;;;;;;;;;20.20;99.90;;;;;;5092428;28;20387;-80
2022/09/07 06:17:27;;;;;;;;;;;20.70;99.90;;;;;;5094396;28;20387;-81
2022/09/07 06:19:54;;;;;;;;;;;20.80;99.90;;;;;;5076061;28;20285;-80
2022/09/07 06:22:22;;;;;;;;;;;20.70;99.90;;;;;;5067930;28;19954;-81
2022/09/07 06:24:50;;;;;;;;;;;20.50;99.90;;;;;;5057299;28;19931;-80
2022/09/07 06:27:16;;;;;;;;;;;20.40;99.90;;;;;;5072949;28;20015;-79
2022/09/07 06:29:43;;;;;;;;;;;20.20;99.90;;;;;;5084851;28;19932;-80
2022/09/07 06:32:12;;;;;;;;;;;20.00;99.90;;;;;;5077278;28;19981;-81
2022/09/07 06:34:38;;;;;;;;;;;20.00;99.90;;;;;;5078337;28;20296;-78
2022/09/07 06:37:05;;;;;;;;;;;19.90;99.90;;;;;;5078167;28;19977;-80
2022/09/07 06:39:33;;;;;;;;;;;19.70;99.90;;;;;;5095220;28;19924;-79
2022/09/07 06:42:00;;;;;;;;;;;19.70;99.90;;;;;;5087383;28;19925;-80
2022/09/07 06:44:30;;;;;;;;;;;19.90;99.90;;;;;;5072989;28;19931;-81
2022/09/07 06:46:57;;;;;;;;;;;20.50;99.90;;;;;;5055699;28;19987;-79
2022/09/07 06:49:25;;;;;;;;;;;20.70;99.90;;;;;;5073953;28;20586;-79
2022/09/07 06:51:52;;;;;;;;;;;21.10;99.90;;;;;;5057357;28;20272;-80
2022/09/07 06:54:19;;;;;;;;;;;22.20;99.90;;;;;;5058152;28;19928;-79
2022/09/07 06:56:47;;;;;;;;;;;23.10;99.90;;;;;;5057267;28;19928;-81
2022/09/07 06:59:13;;;;;;;;;;;23.80;99.90;;;;;;5076618;28;19928;-80
2022/09/07 07:01:40;;;;;;;;;;;24.30;99.90;;;;;;5058401;28;19932;-81
2022/09/07 07:04:07;;;;;;;;;;;24.30;99.90;;;;;;5077773;28;19955;-80
2022/09/07 07:06:36;;;;;;;;;;;24.10;99.90;;;;;;5085933;28;19928;-81
2022/09/07 07:09:04;;;;;;;;;;;23.60;99.90;;;;;;5083301;28;20561;-79
2022/09/07 07:11:31;;;;;;;;;;;22.90;99.90;;;;;;5090864;28;19931;-80
2022/09/07 07:13:58;;;;;;;;;;;22.90;99.90;;;;;;5064420;28;19954;-79
2022/09/07 07:16:25;;;;;;;;;;;22.80;99.90;;;;;;5062379;28;19929;-77
2022/09/07 07:18:55;;;;;;;;;;;22.80;99.90;;;;;;5061343;28;19924;-79
2022/09/07 07:21:22;;;;;;;;;;;22.80;99.90;;;;;;5096589;28;20314;-78
2022/09/07 07:23:51;;;;;;;;;;;22.80;99.90;;;;;;5080060;28;19932;-80
2022/09/07 07:26:19;;;;;;;;;;;22.60;99.90;;;;;;5079531;28;19991;-78
2022/09/07 07:28:47;;;;;;;;;;;22.40;99.90;;;;;;5079642;28;20008;-78
2022/09/07 07:31:15;;;;;;;;;;;22.30;99.90;;;;;;5078679;28;20244;-79
2022/09/07 07:33:42;;;;;;;;;;;22.20;99.90;;;;;;5072201;28;19936;-77
2022/09/07 07:36:13;;;;;;;;;;;22.10;99.90;;;;;;5070910;28;19928;-79
2022/09/07 07:38:40;;;;;;;;;;;22.10;99.90;;;;;;5095749;28;19928;-79
2022/09/07 07:41:09;;;;;;;;;;;22.10;99.90;;;;;;5070515;28;19965;-81
2022/09/07 07:43:36;;;;;;;;;;;22.00;99.90;;;;;;5071312;28;19928;-78
2022/09/07 07:46:03;;;;;;;;;;;22.50;99.90;;;;;;5074184;28;19924;-78
2022/09/07 07:48:31;;;;;;;;;;;22.70;99.90;;;;;;5076769;28;19924;-80
2022/09/07 07:50:58;;;;;;;;;;;22.80;99.90;;;;;;5075873;28;19966;-80
2022/09/07 07:53:25;;;;;;;;;;;22.60;99.90;;;;;;5076514;28;19925;-76
2022/09/07 07:55:52;;;;;;;;;;;22.20;99.90;;;;;;5071754;28;19928;-76
2022/09/07 07:58:21;;;;;;;;;;;21.90;99.90;;;;;;5055859;28;20399;-79
2022/09/07 08:00:48;;;;;;;;;;;21.60;99.90;;;;;;5075532;28;19943;-79
2022/09/07 08:03:15;;;;;;;;;;;21.40;99.90;;;;;;5076278;28;19925;-78
2022/09/07 08:05:42;;;;;;;;;;;21.30;99.90;;;;;;5060934;28;20622;-79
2022/09/07 08:08:10;;;;;;;;;;;21.00;99.90;;;;;;5084582;28;19928;-78
2022/09/07 08:10:37;;;;;;;;;;;20.90;99.90;;;;;;5075951;28;19925;-79
2022/09/07 08:13:05;;;;;;;;;;;20.70;99.90;;;;;;5080054;28;19928;-79
2022/09/07 08:15:43;;;;;;;;;;;20.40;99.90;;;;;;5077733;28;19963;-79
2022/09/07 08:18:11;;;;;;;;;;;20.30;99.90;;;;;;5093547;28;19924;-79
2022/09/07 08:20:38;;;;;;;;;;;20.30;99.90;;;;;;5075417;28;20310;-78
2022/09/07 08:23:06;;;;;;;;;;;20.20;99.90;;;;;;5076454;28;20560;-78
2022/09/07 08:25:33;;;;;;;;;;;20.10;99.90;;;;;;5064093;28;19928;-79
2022/09/07 08:28:00;;;;;;;;;;;20.00;99.90;;;;;;5077085;28;20391;-79
2022/09/07 08:30:26;;;;;;;;;;;19.90;99.90;;;;;;5074764;28;19924;-79
2022/09/07 08:32:55;;;;;;;;;;;19.80;99.90;;;;;;5095186;28;19934;-79
2022/09/07 08:35:22;;;;;;;;;;;19.80;99.90;;;;;;5076258;28;19990;-79
2022/09/07 08:37:48;;;;;;;;;;;19.80;99.90;;;;;;5087396;28;20370;-79
2022/09/07 08:40:16;;;;;;;;;;;19.80;99.90;;;;;;5076011;28;19972;-79
2022/09/07 08:42:47;;;;;;;;;;;20.00;99.90;;;;;;5092349;28;20036;-79
2022/09/07 08:45:17;;;;;;;;;;;20.30;99.90;;;;;;5075357;28;19934;-79
2022/09/07 08:47:46;;;;;;;;;;;20.30;99.90;;;;;;5083159;28;19924;-78
2022/09/07 08:50:18;;;;;;;;;;;20.50;99.90;;;;;;5076171;28;19935;-78
2022/09/07 08:52:48;;;;;;;;;;;20.70;99.90;;;;;;5082264;28;19942;-79
2022/09/07 08:55:19;;;;;;;;;;;21.10;99.90;;;;;;5080315;28;20566;-79
2022/09/07 08:57:49;;;;;;;;;;;21.10;99.90;;;;;;5080028;28;20300;-79
2022/09/07 09:00:17;;;;;;;;;;;21.30;99.90;;;;;;5080461;28;19932;-79
2022/09/07 09:02:44;;;;;;;;;;;21.50;99.90;;;;;;5079600;28;20387;-79
2022/09/07 09:05:20;;;;;;;;;;;21.80;99.90;;;;;;5079352;28;19938;-79
2022/09/07 09:07:52;;;;;;;;;;;21.80;99.90;;;;;;5078749;28;19925;-79
2022/09/07 09:10:22;;;;;;;;;;;21.90;99.90;;;;;;5075330;28;19928;-77
2022/09/07 09:13:00;;;;;;;;;;;22.00;99.90;;;;;;5071008;28;19932;-76
2022/09/07 09:15:31;;;;;;;;;;;22.30;99.90;;;;;;5061806;28;19928;-78
2022/09/07 09:18:01;;;;;;;;;;;22.30;99.90;;;;;;5068972;28;20345;-78
2022/09/07 09:20:33;;;;;;;;;;;22.50;99.90;;;;;;5069507;28;19946;-78
2022/09/07 09:23:01;;;;;;;;;;;22.90;99.90;;;;;;5069472;28;19999;-78
2022/09/07 09:25:31;;;;;;;;;;;23.30;99.90;;;;;;5075031;28;20418;-77
2022/09/07 09:27:58;;;;;;;;;;;23.80;99.90;;;;;;5073054;28;19963;-77
2022/09/07 09:30:26;;;;;;;;;;;24.10;99.90;;;;;;5058812;28;19929;-78
2022/09/07 09:33:11;;;;;;;;;;;24.30;99.90;;;;;;5064128;28;19928;-78
2022/09/07 09:35:40;;;;;;;;;;;24.40;99.90;;;;;;5069003;28;19929;-78
2022/09/07 09:38:27;;;;;;;;;;;24.40;99.90;;;;;;5054513;28;19929;-78
2022/09/07 09:40:55;;;;;;;;;;;24.20;99.90;;;;;;5089917;28;20086;-78
2022/09/07 09:43:24;;;;;;;;;;;24.00;99.90;;;;;;5073372;28;20591;-77
2022/09/07 09:45:52;;;;;;;;;;;23.90;99.90;;;;;;5062218;28;19936;-78
2022/09/07 09:48:20;;;;;;;;;;;23.80;99.90;;;;;;5071312;28;20520;-78
2022/09/07 09:50:49;;;;;;;;;;;23.80;99.90;;;;;;5068974;28;20422;-78
2022/09/07 09:53:23;;;;;;;;;;;23.90;99.90;;;;;;5052393;28;19932;-78
2022/09/07 09:55:51;;;;;;;;;;;24.10;99.90;;;;;;5069984;28;20019;-77
2022/09/07 09:58:27;;;;;;;;;;;24.30;99.90;;;;;;5051749;28;19924;-78
2022/09/07 10:00:56;;;;;;;;;;;24.50;99.90;;;;;;5068537;28;19925;-77
2022/09/07 10:03:25;;;;;;;;;;;24.70;99.90;;;;;;5069929;28;19939;-78
2022/09/07 10:05:54;;;;;;;;;;;24.80;99.90;;;;;;5071765;28;20334;-78
2022/09/07 10:08:23;;;;;;;;;;;24.80;99.90;;;;;;5071995;28;19928;-76
2022/09/07 10:10:54;;;;;;;;;;;24.90;99.90;;;;;;5091025;28;19931;-77
2022/09/07 10:13:22;;;;;;;;;;;25.00;99.90;;;;;;5088287;28;20390;-77
2022/09/07 10:15:54;;;;;;;;;;;25.20;99.90;;;;;;5071801;28;20387;-78
2022/09/07 10:18:25;;;;;;;;;;;25.40;99.90;;;;;;5071703;28;19928;-77
2022/09/07 10:20:52;;;;;;;;;;;25.60;99.90;;;;;;5068223;28;19928;-78
2022/09/07 10:23:22;;;;;;;;;;;25.80;99.90;;;;;;5069442;28;20510;-77
2022/09/07 10:25:49;;;;;;;;;;;25.80;99.90;;;;;;5069827;28;19928;-78
2022/09/07 10:28:18;;;;;;;;;;;25.50;99.90;;;;;;5071247;28;20497;-78
2022/09/07 10:30:52;;;;;;;;;;;25.20;99.90;;;;;;5066220;28;20302;-78
2022/09/07 10:33:24;;;;;;;;;;;25.00;99.90;;;;;;5068548;28;19932;-77
2022/09/07 10:35:53;;;;;;;;;;;24.70;99.90;;;;;;5071331;28;19924;-77
2022/09/07 10:38:23;;;;;;;;;;;24.50;99.90;;;;;;5071845;28;19928;-77
2022/09/07 10:40:54;;;;;;;;;;;24.40;99.90;;;;;;5078584;28;20414;-77
2022/09/07 10:43:30;;;;;;;;;;;24.50;99.90;;;;;;5094142;28;20426;-77
2022/09/07 10:46:08;;;;;;;;;;;24.70;99.90;;;;;;5095472;28;19974;-78
2022/09/07 10:48:40;;;;;;;;;;;25.10;99.90;;;;;;5077695;28;20691;-77
2022/09/07 10:51:10;;;;;;;;;;;25.40;99.90;;;;;;5086016;28;19928;-78
2022/09/07 10:53:42;;;;;;;;;;;25.70;99.90;;;;;;5077224;28;19932;-78
2022/09/07 10:56:11;;;;;;;;;;;26.10;99.90;;;;;;5063983;28;19984;-79
2022/09/07 10:58:44;;;;;;;;;;;26.40;99.90;;;;;;5073810;28;19939;-79
2022/09/07 11:01:15;;;;;;;;;;;26.60;99.90;;;;;;5072921;28;19970;-78
2022/09/07 11:03:51;;;;;;;;;;;26.60;99.90;;;;;;5060660;28;19928;-78
2022/09/07 11:06:23;;;;;;;;;;;26.60;99.90;;;;;;5093508;28;19924;-80
2022/09/07 11:09:11;;;;;;;;;;;26.80;99.90;;;;;;5076471;28;19928;-80
2022/09/07 11:11:39;;;;;;;;;;;26.50;99.90;;;;;;5076607;28;20414;-80
2022/09/07 11:14:13;;;;;;;;;;;26.10;99.90;;;;;;5094036;28;19928;-79
2022/09/07 11:16:43;;;;;;;;;;;25.40;99.90;;;;;;5093172;28;19928;-80
2022/09/07 11:19:13;;;;;;;;;;;25.40;99.90;;;;;;5076944;28;19928;-79
2022/09/07 11:21:42;;;;;;;;;;;25.10;99.90;;;;;;5093988;28;19924;-79
2022/09/07 11:24:15;;;;;;;;;;;25.00;99.90;;;;;;5078853;28;19924;-79
2022/09/07 11:26:46;;;;;;;;;;;25.00;99.90;;;;;;5093416;28;20679;-79
2022/09/07 11:29:16;;;;;;;;;;;25.10;99.90;;;;;;5094044;28;19928;-79
2022/09/07 11:31:45;;;;;;;;;;;25.50;99.90;;;;;;5076054;28;19942;-79
2022/09/07 11:34:15;;;;;;;;;;;25.90;99.90;;;;;;5094791;28;19924;-79
2022/09/07 11:36:45;;;;;;;;;;;26.30;99.90;;;;;;5075878;28;20018;-79
2022/09/07 11:39:16;;;;;;;;;;;26.60;99.90;;;;;;5093668;28;19940;-80
2022/09/07 11:41:47;;;;;;;;;;;26.90;99.90;;;;;;5094190;28;20448;-79
2022/09/07 11:44:16;;;;;;;;;;;27.00;99.90;;;;;;5092956;28;19928;-79
2022/09/07 11:46:44;;;;;;;;;;;26.80;99.90;;;;;;5091988;28;20088;-79
2022/09/07 11:49:20;;;;;;;;;;;26.80;99.90;;;;;;5076302;28;19928;-80
2022/09/07 11:51:49;;;;;;;;;;;26.70;99.90;;;;;;5075131;28;19978;-79
2022/09/07 11:54:31;;;;;;;;;;;26.60;99.90;;;;;;5093276;28;19924;-79
2022/09/07 11:57:02;;;;;;;;;;;26.60;99.90;;;;;;5072605;28;19924;-79
2022/09/07 11:59:39;;;;;;;;;;;26.70;99.90;;;;;;5076590;28;19924;-79
2022/09/07 12:02:16;;;;;;;;;;;27.00;99.90;;;;;;5094051;28;20379;-79
2022/09/07 12:04:48;;;;;;;;;;;27.20;99.90;;;;;;5092503;28;19954;-78
2022/09/07 12:07:28;;;;;;;;;;;27.40;99.90;;;;;;5091243;28;20387;-78
2022/09/07 12:10:15;;;;;;;;;;;27.40;99.90;;;;;;5092625;28;20069;-78
2022/09/07 12:12:56;;;;;;;;;;;27.40;99.90;;;;;;5092609;28;20356;-78
2022/09/07 12:15:29;;;;;;;;;;;27.50;99.90;;;;;;5092256;28;19932;-78
2022/09/07 12:18:02;;;;;;;;;;;27.50;99.90;;;;;;5075277;28;19924;-78
2022/09/07 12:20:38;;;;;;;;;;;27.60;99.90;;;;;;5074867;28;19947;-78
2022/09/07 12:23:17;;;;;;;;;;;27.60;99.90;;;;;;5091753;28;20010;-78
2022/09/07 12:25:45;;;;;;;;;;;27.60;99.90;;;;;;5074833;28;19928;-78
2022/09/07 12:28:14;;;;;;;;;;;27.60;99.90;;;;;;5094148;28;20311;-79
2022/09/07 12:30:51;;;;;;;;;;;27.40;99.90;;;;;;5076105;28;19928;-79
2022/09/07 12:33:19;;;;;;;;;;;27.40;99.90;;;;;;5091954;28;19928;-79
2022/09/07 12:35:46;;;;;;;;;;;27.20;99.90;;;;;;5074661;28;19932;-79
2022/09/07 12:38:37;;;;;;;;;;;27.20;99.90;;;;;;5075594;28;19932;-78
2022/09/07 12:41:20;;;;;;;;;;;27.10;99.90;;;;;;5076410;28;19932;-78
2022/09/07 12:44:05;;;;;;;;;;;27.10;99.90;;;;;;5076169;28;20280;-78
2022/09/07 12:46:45;;;;;;;;;;;27.10;99.90;;;;;;5074070;28;20044;-78
2022/09/07 12:49:21;;;;;;;;;;;27.20;99.90;;;;;;5093053;28;20461;-78
2022/09/07 12:51:52;;;;;;;;;;;27.30;99.90;;;;;;5090883;28;19935;-78
2022/09/07 12:54:21;;;;;;;;;;;27.40;99.90;;;;;;5090054;28;19928;-78
2022/09/07 12:56:51;;;;;;;;;;;27.50;99.90;;;;;;5091207;28;19928;-78
2022/09/07 12:59:33;;;;;;;;;;;27.60;99.90;;;;;;5074569;28;19982;-78
2022/09/07 13:02:03;;;;;;;;;;;27.70;99.90;;;;;;5092485;28;19935;-78
2022/09/07 13:04:46;;;;;;;;;;;27.80;99.90;;;;;;5090146;28;19928;-78
2022/09/07 13:07:31;;;;;;;;;;;27.90;99.90;;;;;;5074589;28;20429;-79
2022/09/07 13:09:58;;;;;;;;;;;27.90;99.90;;;;;;5092092;28;19928;-78
2022/09/07 13:12:30;;;;;;;;;;;28.00;99.90;;;;;;5078401;28;19924;-80
2022/09/07 13:14:59;;;;;;;;;;;28.10;99.90;;;;;;5079184;28;20363;-80
2022/09/07 13:17:44;;;;;;;;;;;28.30;99.90;;;;;;5098382;28;19950;-80
2022/09/07 13:20:20;;;;;;;;;;;28.50;99.90;;;;;;5079557;28;19999;-81
2022/09/07 13:23:14;;;;;;;;;;;28.70;99.90;;;;;;5081080;28;19943;-80
2022/09/07 13:25:44;;;;;;;;;;;28.80;99.90;;;;;;5032989;28;20341;-79
2022/09/07 13:28:15;;;;;;;;;;;29.10;99.90;;;;;;5078174;28;20307;-79
2022/09/07 13:30:48;;;;;;;;;;;29.30;99.90;;;;;;5079876;28;19928;-80
2022/09/07 13:33:34;;;;;;;;;;;29.40;99.90;;;;;;5080251;28;19959;-81
2022/09/07 13:36:02;;;;;;;;;;;28.90;99.90;;;;;;5083382;28;19928;-79
2022/09/07 13:38:30;;;;;;;;;;;28.90;99.90;;;;;;5077187;28;19932;-78
2022/09/07 13:41:02;;;;;;;;;;;28.80;99.90;;;;;;5095976;28;19935;-79
2022/09/07 13:43:29;;;;;;;;;;;28.80;99.90;;;;;;5076483;28;19967;-79
2022/09/07 13:46:01;;;;;;;;;;;28.70;99.90;;;;;;5095858;28;19924;-80
2022/09/07 13:48:32;;;;;;;;;;;28.80;99.90;;;;;;5077384;28;19924;-79
2022/09/07 13:51:03;;;;;;;;;;;28.80;99.90;;;;;;5094772;28;20688;-80
2022/09/07 13:53:36;;;;;;;;;;;28.80;99.90;;;;;;5075638;28;20299;-79
2022/09/07 13:56:07;;;;;;;;;;;28.80;99.90;;;;;;5074256;28;19932;-79
2022/09/07 13:58:35;;;;;;;;;;;28.80;99.90;;;;;;5076500;28;19928;-79
2022/09/07 14:01:05;;;;;;;;;;;28.80;99.90;;;;;;5076280;28;19924;-79
2022/09/07 14:03:36;;;;;;;;;;;28.70;99.90;;;;;;5077040;28;19947;-79
2022/09/07 14:06:13;;;;;;;;;;;28.60;99.90;;;;;;5076257;28;19932;-79
2022/09/07 14:08:41;;;;;;;;;;;28.40;99.90;;;;;;5093995;28;20375;-79
2022/09/07 14:11:17;;;;;;;;;;;28.30;99.90;;;;;;5093255;28;20454;-79
2022/09/07 14:13:45;;;;;;;;;;;28.20;99.90;;;;;;5094691;28;20421;-80
2022/09/07 14:16:16;;;;;;;;;;;28.00;99.90;;;;;;5075355;28;19928;-79
2022/09/07 14:18:44;;;;;;;;;;;28.00;99.90;;;;;;5092977;28;20341;-79
2022/09/07 14:21:17;;;;;;;;;;;28.00;99.90;;;;;;5094317;28;19981;-79
2022/09/07 14:23:49;;;;;;;;;;;28.00;99.90;;;;;;5077931;28;19978;-79
2022/09/07 14:26:18;;;;;;;;;;;28.10;99.90;;;;;;5076109;28;19924;-79
2022/09/07 14:28:46;;;;;;;;;;;28.10;99.90;;;;;;5076920;28;20390;-79
2022/09/07 14:31:15;;;;;;;;;;;28.00;99.90;;;;;;5073259;28;19974;-77
2022/09/07 14:33:46;;;;;;;;;;;28.20;99.90;;;;;;5073068;28;19935;-78